createdAt,value
2019-02-14T00:00:43.282Z,99.90
2019-02-14T00:03:12.609Z,99.90
2019-02-14T00:05:41.969Z,99.90
2019-02-14T00:08:11.414Z,99.90
2019-02-14T00:10:40.776Z,99.90
2019-02-14T00:13:10.244Z,99.90
2019-02-14T00:15:39.571Z,99.90
2019-02-14T00:18:08.943Z,99.90
2019-02-14T00:20:38.387Z,99.90
2019-02-14T00:23:07.862Z,99.90
2019-02-14T00:25:37.200Z,99.90
2019-02-14T00:28:06.601Z,99.90
2019-02-14T00:30:36.010Z,99.90
2019-02-14T00:33:05.437Z,99.90
2019-02-14T00:35:35.032Z,99.90
2019-02-14T00:38:04.433Z,99.90
2019-02-14T00:40:33.857Z,99.90
2019-02-14T00:43:03.280Z,99.90
2019-02-14T00:45:32.626Z,99.90
2019-02-14T00:48:01.977Z,99.90
2019-02-14T00:50:31.398Z,99.90
2019-02-14T00:53:00.796Z,99.90
2019-02-14T00:55:30.188Z,99.90
2019-02-14T00:57:59.600Z,99.90
2019-02-14T01:00:28.921Z,99.90
2019-02-14T01:02:58.339Z,99.90
2019-02-14T01:05:33.441Z,99.90
2019-02-14T01:07:58.720Z,99.90
2019-02-14T01:10:28.023Z,99.90
2019-02-14T01:12:57.345Z,99.90
2019-02-14T01:15:27.199Z,99.90
2019-02-14T01:17:56.511Z,99.90
2019-02-14T01:20:25.869Z,99.90
2019-02-14T01:22:55.232Z,99.90
2019-02-14T01:25:24.556Z,99.90
2019-02-14T01:27:53.872Z,99.90
2019-02-14T01:30:23.219Z,99.90
2019-02-14T01:32:52.567Z,99.90
2019-02-14T01:35:21.911Z,99.90
2019-02-14T01:37:51.202Z,99.90
2019-02-14T01:40:20.608Z,99.90
2019-02-14T01:42:49.908Z,99.90
2019-02-14T01:45:19.387Z,99.90
2019-02-14T01:47:48.693Z,99.90
2019-02-14T01:50:18.061Z,99.90
2019-02-14T01:52:47.349Z,99.90
2019-02-14T01:55:16.708Z,99.90
2019-02-14T01:57:46.033Z,99.90
2019-02-14T02:00:16.048Z,99.90
2019-02-14T02:02:45.411Z,99.90
2019-02-14T02:05:14.704Z,99.90
2019-02-14T02:07:44.094Z,99.90
2019-02-14T02:10:13.630Z,99.90
2019-02-14T02:12:43.040Z,99.90
2019-02-14T02:15:13.604Z,99.90
2019-02-14T02:17:43.019Z,99.90
2019-02-14T02:20:12.412Z,99.90
2019-02-14T02:22:41.756Z,99.90
2019-02-14T02:25:11.705Z,99.90
2019-02-14T02:27:41.086Z,99.90
2019-02-14T02:30:12.601Z,99.90
2019-02-14T02:32:41.958Z,99.90
2019-02-14T02:35:11.305Z,99.90
2019-02-14T02:37:40.701Z,99.90
2019-02-14T02:40:10.058Z,99.90
2019-02-14T02:42:39.409Z,99.90
2019-02-14T02:45:10.176Z,99.90
2019-02-14T02:47:39.591Z,99.90
2019-02-14T02:50:10.877Z,99.90
2019-02-14T02:52:40.284Z,99.90
2019-02-14T02:55:09.809Z,99.90
2019-02-14T02:57:39.145Z,99.90
2019-02-14T03:00:12.394Z,99.90
2019-02-14T03:02:41.762Z,99.90
2019-02-14T03:05:12.236Z,99.90
2019-02-14T03:07:41.619Z,99.90
2019-02-14T03:10:11.528Z,99.90
2019-02-14T03:12:40.951Z,99.90
2019-02-14T03:15:11.362Z,99.90
2019-02-14T03:17:40.760Z,99.90
2019-02-14T03:20:10.905Z,99.90
2019-02-14T03:22:40.288Z,99.90
2019-02-14T03:25:12.255Z,99.90
2019-02-14T03:27:41.622Z,99.90
2019-02-14T03:30:11.776Z,99.90
2019-02-14T03:32:41.088Z,99.90
2019-02-14T03:35:10.427Z,99.90
2019-02-14T03:37:39.731Z,99.90
2019-02-14T03:40:10.294Z,99.90
2019-02-14T03:42:39.629Z,99.90
2019-02-14T03:45:12.082Z,99.90
2019-02-14T03:47:41.387Z,99.90
2019-02-14T03:50:10.808Z,99.90
2019-02-14T03:52:40.207Z,99.90
2019-02-14T03:55:09.682Z,99.90
2019-02-14T03:57:39.138Z,99.90
2019-02-14T04:00:11.027Z,99.90
2019-02-14T04:02:40.425Z,99.90
2019-02-14T04:05:09.771Z,99.90
2019-02-14T04:07:39.183Z,99.90
2019-02-14T04:10:10.188Z,99.90
2019-02-14T04:12:39.600Z,99.90
2019-02-14T04:15:10.999Z,99.90
2019-02-14T04:17:40.416Z,99.90
2019-02-14T04:20:09.884Z,99.90
2019-02-14T04:22:39.237Z,99.90
2019-02-14T04:25:08.697Z,99.90
2019-02-14T04:27:38.087Z,99.90
2019-02-14T04:30:08.056Z,99.90
2019-02-14T04:32:37.379Z,99.90
2019-02-14T04:35:07.159Z,99.90
2019-02-14T04:37:36.571Z,99.90
2019-02-14T04:40:07.043Z,99.90
2019-02-14T04:42:36.435Z,99.90
2019-02-14T04:45:06.056Z,99.90
2019-02-14T04:47:35.536Z,99.90
2019-02-14T04:50:05.183Z,99.90
2019-02-14T04:52:34.518Z,99.90
2019-02-14T04:55:04.070Z,99.90
2019-02-14T04:57:33.467Z,99.90
2019-02-14T05:00:02.798Z,99.90
2019-02-14T05:02:32.200Z,99.90
2019-02-14T05:05:01.487Z,99.90
2019-02-14T05:07:30.980Z,99.90
2019-02-14T05:10:00.488Z,99.90
2019-02-14T05:12:29.935Z,99.90
2019-02-14T05:14:59.254Z,99.90
2019-02-14T05:17:28.584Z,99.90
2019-02-14T05:19:58.096Z,99.90
2019-02-14T05:22:27.485Z,99.90
2019-02-14T05:24:56.839Z,99.90
2019-02-14T05:27:26.176Z,99.90
2019-02-14T05:29:55.567Z,99.90
2019-02-14T05:32:24.977Z,99.90
2019-02-14T05:34:54.478Z,99.90
2019-02-14T05:37:23.918Z,99.90
2019-02-14T05:39:53.671Z,99.90
2019-02-14T05:42:25.055Z,99.90
2019-02-14T05:44:54.594Z,99.90
2019-02-14T05:47:24.138Z,99.90
2019-02-14T05:49:53.673Z,99.90
2019-02-14T05:52:23.235Z,99.90
2019-02-14T05:54:52.867Z,99.90
2019-02-14T05:57:22.179Z,99.90
2019-02-14T05:59:51.592Z,99.90
2019-02-14T06:02:21.071Z,99.90
2019-02-14T06:04:50.835Z,99.90
2019-02-14T06:07:20.839Z,99.90
2019-02-14T06:09:50.520Z,99.90
2019-02-14T06:12:20.132Z,99.90
2019-02-14T06:14:49.483Z,99.90
2019-02-14T06:17:18.906Z,99.90
2019-02-14T06:19:48.479Z,99.90
2019-02-14T06:22:17.943Z,99.90
2019-02-14T06:24:47.338Z,99.90
2019-02-14T06:27:16.780Z,99.90
2019-02-14T06:29:46.185Z,99.90
2019-02-14T06:32:15.543Z,99.90
2019-02-14T06:34:44.959Z,99.90
2019-02-14T06:37:14.312Z,99.90
2019-02-14T06:39:43.742Z,99.90
2019-02-14T06:42:13.147Z,99.90
2019-02-14T06:44:42.564Z,99.90
2019-02-14T06:47:12.266Z,99.90
2019-02-14T06:49:41.712Z,99.90
2019-02-14T06:52:11.205Z,99.90
2019-02-14T06:54:40.719Z,99.90
2019-02-14T06:57:10.415Z,99.90
2019-02-14T06:59:39.839Z,99.90
2019-02-14T07:02:09.492Z,99.90
2019-02-14T07:04:38.970Z,99.90
2019-02-14T07:07:08.462Z,99.90
2019-02-14T07:09:38.223Z,99.90
2019-02-14T07:12:07.832Z,99.90
2019-02-14T07:14:37.248Z,99.90
2019-02-14T07:17:06.958Z,99.90
2019-02-14T07:19:36.393Z,99.90
2019-02-14T07:22:06.383Z,99.90
2019-02-14T07:24:35.961Z,99.90
2019-02-14T07:27:05.752Z,99.90
2019-02-14T07:29:35.267Z,99.90
2019-02-14T07:32:04.911Z,99.90
2019-02-14T07:34:34.660Z,99.90
2019-02-14T07:37:04.473Z,99.90
2019-02-14T07:39:34.472Z,99.90
2019-02-14T07:42:04.385Z,99.90
2019-02-14T07:44:34.404Z,99.90
2019-02-14T07:47:04.289Z,99.90
2019-02-14T07:49:34.219Z,99.90
2019-02-14T07:52:03.746Z,99.90
2019-02-14T07:54:33.303Z,99.90
2019-02-14T07:57:02.634Z,99.90
2019-02-14T07:59:35.280Z,99.90
2019-02-14T08:02:05.007Z,99.90
2019-02-14T08:04:34.637Z,97.50
2019-02-14T08:07:04.332Z,90.50
2019-02-14T08:09:34.077Z,79.10
2019-02-14T08:12:03.831Z,72.70
2019-02-14T08:14:33.394Z,67.90
2019-02-14T08:17:02.882Z,64.00
2019-02-14T08:19:32.663Z,60.20
2019-02-14T08:22:02.240Z,57.90
2019-02-14T08:24:34.477Z,55.40
2019-02-14T08:27:05.975Z,54.50
2019-02-14T08:29:36.960Z,52.60
2019-02-14T08:32:06.909Z,50.80
2019-02-14T08:34:36.540Z,48.60
2019-02-14T08:37:06.057Z,48.10
2019-02-14T08:39:35.709Z,47.10
2019-02-14T08:42:05.778Z,47.10
2019-02-14T08:44:35.884Z,46.60
2019-02-14T08:47:05.907Z,45.80
2019-02-14T08:49:36.092Z,45.20
2019-02-14T08:52:05.992Z,44.50
2019-02-14T08:54:36.497Z,44.10
2019-02-14T08:57:06.425Z,43.60
2019-02-14T08:59:36.356Z,42.10
2019-02-14T09:02:06.265Z,41.10
2019-02-14T09:04:35.716Z,41.00
2019-02-14T09:07:05.639Z,40.60
2019-02-14T09:09:35.475Z,40.00
2019-02-14T09:12:05.130Z,39.40
2019-02-14T09:14:34.715Z,38.90
2019-02-14T09:17:04.331Z,38.00
2019-02-14T09:19:33.964Z,37.50
2019-02-14T09:22:03.583Z,37.60
2019-02-14T09:24:33.410Z,36.60
2019-02-14T09:27:03.081Z,36.60
2019-02-14T09:29:32.661Z,36.20
2019-02-14T09:32:02.202Z,36.50
2019-02-14T09:34:31.913Z,36.10
2019-02-14T09:37:02.119Z,35.80
2019-02-14T09:39:40.639Z,34.50
2019-02-14T09:42:03.657Z,33.80
2019-02-14T09:44:33.594Z,33.70
2019-02-14T09:47:03.382Z,33.40
2019-02-14T09:49:32.981Z,31.30
2019-02-14T09:52:02.688Z,31.00
2019-02-14T09:54:32.078Z,31.90
2019-02-14T09:57:01.640Z,31.40
2019-02-14T09:59:33.581Z,30.70
2019-02-14T10:02:03.321Z,30.20
2019-02-14T10:04:33.173Z,29.90
2019-02-14T10:07:02.600Z,30.50
2019-02-14T10:09:31.906Z,30.20
2019-02-14T10:12:01.221Z,30.90
2019-02-14T10:14:30.679Z,31.80
2019-02-14T10:17:00.132Z,30.60
2019-02-14T10:19:29.517Z,29.60
2019-02-14T10:21:58.935Z,29.30
2019-02-14T10:24:28.380Z,28.80
2019-02-14T10:26:57.815Z,30.00
2019-02-14T10:29:27.209Z,30.90
2019-02-14T10:31:56.742Z,31.40
2019-02-14T10:34:26.177Z,32.20
2019-02-14T10:36:55.571Z,32.40
2019-02-14T10:39:24.914Z,31.90
2019-02-14T10:41:54.605Z,31.60
2019-02-14T10:44:24.182Z,31.10
2019-02-14T10:46:53.742Z,30.80
2019-02-14T10:49:23.621Z,30.50
2019-02-14T10:51:53.328Z,30.20
2019-02-14T10:54:22.725Z,30.40
2019-02-14T10:56:52.071Z,30.00
2019-02-14T10:59:21.649Z,30.00
2019-02-14T11:01:51.106Z,29.70
2019-02-14T11:04:20.544Z,29.40
2019-02-14T11:06:49.908Z,30.60
2019-02-14T11:09:19.343Z,31.60
2019-02-14T11:11:49.013Z,32.80
2019-02-14T11:14:18.471Z,33.70
2019-02-14T11:16:47.840Z,35.30
2019-02-14T11:19:17.175Z,36.00
2019-02-14T11:21:46.605Z,36.60
2019-02-14T11:24:16.085Z,37.40
2019-02-14T11:26:45.619Z,37.60
2019-02-14T11:29:15.150Z,38.10
2019-02-14T11:31:44.605Z,38.70
2019-02-14T11:34:14.166Z,39.40
2019-02-14T11:36:43.661Z,40.00
2019-02-14T11:39:13.081Z,40.40
2019-02-14T11:41:42.561Z,40.80
2019-02-14T11:44:11.982Z,40.50
2019-02-14T11:46:41.439Z,41.10
2019-02-14T11:49:11.193Z,41.00
2019-02-14T11:51:40.728Z,41.40
2019-02-14T11:54:10.203Z,41.00
2019-02-14T11:56:39.846Z,40.70
2019-02-14T11:59:09.260Z,39.60
2019-02-14T12:01:38.767Z,38.80
2019-02-14T12:04:08.145Z,38.50
2019-02-14T12:06:37.615Z,38.00
2019-02-14T12:09:07.267Z,36.50
2019-02-14T12:11:36.683Z,36.70
2019-02-14T12:14:06.370Z,37.50
2019-02-14T12:16:35.789Z,36.40
2019-02-14T12:19:05.237Z,35.80
2019-02-14T12:21:34.628Z,35.30
2019-02-14T12:24:03.953Z,36.30
2019-02-14T12:26:33.386Z,36.50
2019-02-14T12:29:02.809Z,36.80
2019-02-14T12:31:32.377Z,36.90
2019-02-14T12:34:01.764Z,36.80
2019-02-14T12:36:31.181Z,36.70
2019-02-14T12:39:08.939Z,36.90
2019-02-14T12:41:31.632Z,36.90
2019-02-14T12:44:00.991Z,36.90
2019-02-14T12:46:30.440Z,36.40
2019-02-14T12:48:59.818Z,36.20
2019-02-14T12:51:29.178Z,36.30
2019-02-14T12:53:58.563Z,36.20
2019-02-14T12:56:27.904Z,36.00
2019-02-14T12:58:57.268Z,36.00
2019-02-14T13:01:26.744Z,36.20
2019-02-14T13:03:56.109Z,35.70
2019-02-14T13:06:25.495Z,35.10
2019-02-14T13:08:54.911Z,35.30
2019-02-14T13:11:24.236Z,34.80
2019-02-14T13:13:53.688Z,34.40
2019-02-14T13:16:23.135Z,34.00
2019-02-14T13:18:52.482Z,34.00
2019-02-14T13:21:21.800Z,34.10
2019-02-14T13:23:51.209Z,33.20
2019-02-14T13:26:20.611Z,33.50
2019-02-14T13:28:49.947Z,29.80
2019-02-14T13:31:19.259Z,27.90
2019-02-14T13:33:48.641Z,27.90
2019-02-14T13:36:18.085Z,28.20
2019-02-14T13:38:47.531Z,27.90
2019-02-14T13:41:16.881Z,27.90
2019-02-14T13:43:46.339Z,27.80
2019-02-14T13:46:15.871Z,27.50
2019-02-14T13:48:46.809Z,27.80
2019-02-14T13:51:16.185Z,27.10
2019-02-14T13:53:45.544Z,26.80
2019-02-14T13:56:14.870Z,27.10
2019-02-14T13:58:47.367Z,27.00
2019-02-14T14:01:16.955Z,27.40
2019-02-14T14:03:46.427Z,27.10
2019-02-14T14:06:15.763Z,27.20
2019-02-14T14:08:45.100Z,27.50
2019-02-14T14:11:14.463Z,27.80
2019-02-14T14:13:43.786Z,27.80
2019-02-14T14:16:13.190Z,27.60
2019-02-14T14:18:42.552Z,26.80
2019-02-14T14:21:11.944Z,26.70
2019-02-14T14:23:41.256Z,27.30
2019-02-14T14:26:10.778Z,27.30
2019-02-14T14:28:40.361Z,26.50
2019-02-14T14:31:09.833Z,26.60
2019-02-14T14:33:39.209Z,26.90
2019-02-14T14:36:08.567Z,26.70
2019-02-14T14:38:37.884Z,27.10
2019-02-14T14:41:07.312Z,27.30
2019-02-14T14:43:54.243Z,27.50
2019-02-14T14:46:33.334Z,27.80
2019-02-14T14:49:02.677Z,27.70
2019-02-14T14:51:32.031Z,27.00
2019-02-14T14:54:01.364Z,27.10
2019-02-14T14:56:30.768Z,26.70
2019-02-14T14:59:00.118Z,26.50
2019-02-14T15:01:29.433Z,26.70
2019-02-14T15:03:58.767Z,26.60
2019-02-14T15:06:28.169Z,26.40
2019-02-14T15:08:57.525Z,26.60
2019-02-14T15:11:26.988Z,26.40
2019-02-14T15:13:56.330Z,26.50
2019-02-14T15:16:25.719Z,25.80
2019-02-14T15:18:55.036Z,25.90
2019-02-14T15:21:24.630Z,26.00
2019-02-14T15:23:54.002Z,26.40
2019-02-14T15:26:23.478Z,26.80
2019-02-14T15:28:52.901Z,27.20
2019-02-14T15:31:22.298Z,27.30
2019-02-14T15:33:51.675Z,27.40
2019-02-14T15:36:21.803Z,27.10
2019-02-14T15:38:52.144Z,26.60
2019-02-14T15:41:21.491Z,26.80
2019-02-14T15:43:50.893Z,26.50
2019-02-14T15:46:20.387Z,26.50
2019-02-14T15:48:50.030Z,26.20
2019-02-14T15:51:20.064Z,26.30
2019-02-14T15:53:49.547Z,26.70
2019-02-14T15:56:18.962Z,26.70
2019-02-14T15:58:48.543Z,26.90
2019-02-14T16:01:19.017Z,27.30
2019-02-14T16:03:48.626Z,27.70
2019-02-14T16:06:17.969Z,27.60
2019-02-14T16:08:48.873Z,27.70
2019-02-14T16:11:18.373Z,27.70
2019-02-14T16:13:47.973Z,28.00
2019-02-14T16:16:17.391Z,27.90
2019-02-14T16:18:49.050Z,28.00
2019-02-14T16:21:17.881Z,28.50
2019-02-14T16:23:47.480Z,28.10
2019-02-14T16:26:17.218Z,28.30
2019-02-14T16:28:46.995Z,28.60
2019-02-14T16:31:16.385Z,28.80
2019-02-14T16:33:45.739Z,29.20
2019-02-14T16:36:15.088Z,29.30
2019-02-14T16:38:44.492Z,29.00
2019-02-14T16:41:13.852Z,29.30
2019-02-14T16:43:43.218Z,29.60
2019-02-14T16:46:12.622Z,29.70
2019-02-14T16:48:42.066Z,29.80
2019-02-14T16:51:11.445Z,30.00
2019-02-14T16:53:40.915Z,30.20
2019-02-14T16:56:10.323Z,30.30
2019-02-14T16:58:39.797Z,30.50
2019-02-14T17:01:09.229Z,30.70
2019-02-14T17:03:38.591Z,31.20
2019-02-14T17:06:08.108Z,31.20
2019-02-14T17:08:37.540Z,31.30
2019-02-14T17:11:07.022Z,31.60
2019-02-14T17:13:36.407Z,31.90
2019-02-14T17:16:05.849Z,32.00
2019-02-14T17:18:35.270Z,32.30
2019-02-14T17:21:04.744Z,32.60
2019-02-14T17:23:34.096Z,32.80
2019-02-14T17:26:03.554Z,33.10
2019-02-14T17:28:33.022Z,33.50
2019-02-14T17:31:02.443Z,33.80
2019-02-14T17:33:31.897Z,34.10
2019-02-14T17:36:01.315Z,34.10
2019-02-14T17:38:30.708Z,34.30
2019-02-14T17:41:00.318Z,34.70
2019-02-14T17:43:29.709Z,34.80
2019-02-14T17:45:59.168Z,35.40
2019-02-14T17:48:28.573Z,35.70
2019-02-14T17:50:57.929Z,35.80
2019-02-14T17:53:27.320Z,36.10
2019-02-14T17:55:56.754Z,37.30
2019-02-14T17:58:26.228Z,37.50
2019-02-14T18:00:55.654Z,37.70
2019-02-14T18:03:25.040Z,38.00
2019-02-14T18:05:54.445Z,38.50
2019-02-14T18:08:24.171Z,38.60
2019-02-14T18:10:55.158Z,38.50
2019-02-14T18:13:24.631Z,38.00
2019-02-14T18:15:53.979Z,37.70
2019-02-14T18:18:23.366Z,37.70
2019-02-14T18:20:52.756Z,37.40
2019-02-14T18:23:22.115Z,37.00
2019-02-14T18:25:51.443Z,36.90
2019-02-14T18:28:20.784Z,37.10
2019-02-14T18:30:50.127Z,36.90
2019-02-14T18:33:19.477Z,36.70
2019-02-14T18:35:48.823Z,36.70
2019-02-14T18:38:18.280Z,36.80
2019-02-14T18:40:47.668Z,37.20
2019-02-14T18:43:16.996Z,37.10
2019-02-14T18:45:46.372Z,37.10
2019-02-14T18:48:15.762Z,37.30
2019-02-14T18:50:45.154Z,37.40
2019-02-14T18:53:14.537Z,37.80
2019-02-14T18:55:43.901Z,38.00
2019-02-14T18:58:13.203Z,38.10
2019-02-14T19:00:42.595Z,38.20
2019-02-14T19:03:11.933Z,38.50
2019-02-14T19:05:41.297Z,38.60
2019-02-14T19:08:10.710Z,38.90
2019-02-14T19:10:40.075Z,39.10
2019-02-14T19:13:09.404Z,39.50
2019-02-14T19:15:38.766Z,39.80
2019-02-14T19:18:08.162Z,40.10
2019-02-14T19:20:37.571Z,40.30
2019-02-14T19:23:06.964Z,40.60
2019-02-14T19:25:36.320Z,40.90
2019-02-14T19:28:05.746Z,41.50
2019-02-14T19:30:35.126Z,41.90
2019-02-14T19:33:04.483Z,42.20
2019-02-14T19:35:33.830Z,42.20
2019-02-14T19:38:03.226Z,42.20
2019-02-14T19:40:32.641Z,42.40
2019-02-14T19:43:01.988Z,42.40
2019-02-14T19:45:36.681Z,42.50
2019-02-14T19:48:02.467Z,42.30
2019-02-14T19:50:31.813Z,42.30
2019-02-14T19:53:01.169Z,42.20
2019-02-14T19:55:30.499Z,42.10
2019-02-14T19:57:59.853Z,42.10
2019-02-14T20:00:29.191Z,42.00
2019-02-14T20:02:58.546Z,42.10
2019-02-14T20:05:27.875Z,42.00
2019-02-14T20:07:57.242Z,42.00
2019-02-14T20:10:26.593Z,42.10
2019-02-14T20:12:56.028Z,42.20
2019-02-14T20:15:25.528Z,42.40
2019-02-14T20:17:54.865Z,42.60
2019-02-14T20:20:24.178Z,42.90
2019-02-14T20:22:53.668Z,42.90
2019-02-14T20:25:23.637Z,43.60
2019-02-14T20:27:52.989Z,43.80
2019-02-14T20:30:22.316Z,44.20
2019-02-14T20:32:51.722Z,44.60
2019-02-14T20:35:21.133Z,45.00
2019-02-14T20:37:50.537Z,45.10
2019-02-14T20:40:19.884Z,45.10
2019-02-14T20:42:49.272Z,44.90
2019-02-14T20:45:18.643Z,45.00
2019-02-14T20:47:47.947Z,45.00
2019-02-14T20:50:17.325Z,45.00
2019-02-14T20:52:46.640Z,45.30
2019-02-14T20:55:16.572Z,45.60
2019-02-14T20:57:45.940Z,45.60
2019-02-14T21:00:24.845Z,45.90
2019-02-14T21:02:54.271Z,46.00
2019-02-14T21:05:23.736Z,46.10
2019-02-14T21:07:53.052Z,46.30
2019-02-14T21:10:22.475Z,46.40
2019-02-14T21:12:51.831Z,46.70
2019-02-14T21:15:21.250Z,47.00
2019-02-14T21:17:50.564Z,47.20
2019-02-14T21:20:19.929Z,47.40
2019-02-14T21:22:49.256Z,47.50
2019-02-14T21:25:22.588Z,47.70
2019-02-14T21:27:49.749Z,47.90
2019-02-14T21:30:19.174Z,48.20
2019-02-14T21:32:48.645Z,48.30
2019-02-14T21:35:18.106Z,48.60
2019-02-14T21:37:47.584Z,48.60
2019-02-14T21:40:17.029Z,48.60
2019-02-14T21:42:46.478Z,48.60
2019-02-14T21:45:16.220Z,48.80
2019-02-14T21:47:45.585Z,49.00
2019-02-14T21:50:15.038Z,49.10
2019-02-14T21:52:45.225Z,49.20
2019-02-14T21:55:14.672Z,49.10
2019-02-14T21:57:44.089Z,49.10
2019-02-14T22:00:15.996Z,49.20
2019-02-14T22:02:45.843Z,49.20
2019-02-14T22:05:15.226Z,49.40
2019-02-14T22:07:44.643Z,49.30
2019-02-14T22:10:14.119Z,49.40
2019-02-14T22:12:44.289Z,49.50
2019-02-14T22:15:15.803Z,49.60
2019-02-14T22:17:45.222Z,49.70
2019-02-14T22:20:14.559Z,49.70
2019-02-14T22:22:43.902Z,49.70
2019-02-14T22:25:13.224Z,49.70
2019-02-14T22:27:42.570Z,49.50
2019-02-14T22:30:13.961Z,49.50
2019-02-14T22:32:43.386Z,49.50
2019-02-14T22:35:12.728Z,49.60
2019-02-14T22:37:42.139Z,49.50
2019-02-14T22:40:11.515Z,49.70
2019-02-14T22:42:47.320Z,49.40
2019-02-14T22:45:13.615Z,49.30
2019-02-14T22:47:43.732Z,49.10
2019-02-14T22:50:13.091Z,49.00
2019-02-14T22:52:42.395Z,49.00
2019-02-14T22:55:11.787Z,49.00
2019-02-14T22:57:41.139Z,49.20
2019-02-14T23:00:18.381Z,49.20
2019-02-14T23:02:47.686Z,49.30
2019-02-14T23:05:17.104Z,49.30
2019-02-14T23:07:46.459Z,49.30
2019-02-14T23:10:15.828Z,49.20
2019-02-14T23:12:45.268Z,49.10
2019-02-14T23:15:14.814Z,49.00
2019-02-14T23:17:44.626Z,48.80
2019-02-14T23:20:13.997Z,48.70
2019-02-14T23:22:43.319Z,48.50
2019-02-14T23:25:12.648Z,48.30
2019-02-14T23:27:41.941Z,48.00
2019-02-14T23:30:11.415Z,47.80
2019-02-14T23:32:40.787Z,47.70
2019-02-14T23:35:10.519Z,47.50
2019-02-14T23:37:39.820Z,47.30
2019-02-14T23:40:09.173Z,47.00
2019-02-14T23:42:38.463Z,46.90
2019-02-14T23:45:08.215Z,46.80
2019-02-14T23:47:37.531Z,46.70
2019-02-14T23:50:07.153Z,46.60
2019-02-14T23:52:36.603Z,46.60
2019-02-14T23:55:06.008Z,46.60
2019-02-14T23:57:35.308Z,46.50
